createdAt,value
2018-07-26T00:03:22.448Z,17.55
2018-07-26T00:08:02.912Z,17.32
2018-07-26T00:12:42.547Z,17.50
2018-07-26T00:17:23.603Z,18.45
2018-07-26T00:22:03.123Z,18.48
2018-07-26T00:26:43.717Z,18.70
2018-07-26T00:31:24.095Z,18.10
2018-07-26T00:36:06.180Z,17.48
2018-07-26T00:40:46.655Z,17.48
2018-07-26T00:45:26.731Z,17.07
2018-07-26T00:50:06.844Z,18.87
2018-07-26T00:54:47.630Z,18.45
2018-07-26T00:59:27.988Z,19.37
2018-07-26T01:04:08.691Z,18.65
2018-07-26T01:08:49.680Z,18.75
2018-07-26T01:13:29.776Z,19.57
2018-07-26T01:18:09.047Z,18.95
2018-07-26T01:22:49.011Z,18.32
2018-07-26T01:27:29.468Z,19.77
2018-07-26T01:32:10.264Z,18.90
2018-07-26T01:36:50.939Z,19.95
2018-07-26T01:41:31.386Z,18.80
2018-07-26T01:46:11.911Z,19.30
2018-07-26T01:50:51.976Z,19.07
2018-07-26T01:55:31.334Z,19.87
2018-07-26T02:00:11.795Z,19.20
2018-07-26T02:04:52.371Z,19.42
2018-07-26T02:09:33.004Z,18.12
2018-07-26T02:14:19.172Z,19.50
2018-07-26T02:18:59.807Z,19.20
2018-07-26T02:23:40.477Z,20.35
2018-07-26T02:28:20.074Z,21.00
2018-07-26T02:33:00.782Z,20.15
2018-07-26T02:37:41.428Z,19.98
2018-07-26T02:42:21.538Z,19.67
2018-07-26T02:47:02.322Z,20.02
2018-07-26T02:51:42.228Z,21.30
2018-07-26T02:56:21.949Z,21.90
2018-07-26T03:01:02.500Z,20.72
2018-07-26T03:05:44.223Z,20.08
2018-07-26T03:10:25.097Z,20.15
2018-07-26T03:15:06.685Z,19.20
2018-07-26T03:19:46.380Z,18.98
2018-07-26T03:24:26.243Z,20.85
2018-07-26T03:29:06.792Z,21.52
2018-07-26T03:33:48.395Z,21.10
2018-07-26T03:38:28.975Z,20.95
2018-07-26T03:43:09.025Z,20.37
2018-07-26T03:47:50.024Z,19.20
2018-07-26T03:52:29.967Z,21.33
2018-07-26T03:57:10.583Z,20.62
2018-07-26T04:01:50.591Z,22.02
2018-07-26T04:06:31.444Z,21.45
2018-07-26T04:11:11.857Z,21.50
2018-07-26T04:15:52.791Z,21.75
2018-07-26T04:20:33.392Z,21.02
2018-07-26T04:25:13.441Z,20.10
2018-07-26T04:29:53.932Z,20.20
2018-07-26T04:34:33.586Z,19.90
2018-07-26T04:39:14.044Z,20.55
2018-07-26T04:43:53.951Z,19.95
2018-07-26T04:48:35.260Z,20.90
2018-07-26T04:53:15.504Z,20.20
2018-07-26T04:57:56.181Z,21.20
2018-07-26T05:02:39.295Z,21.82
2018-07-26T05:07:18.851Z,22.07
2018-07-26T05:11:58.750Z,21.27
2018-07-26T05:16:39.332Z,20.88
2018-07-26T05:21:19.964Z,21.48
2018-07-26T05:25:59.535Z,23.70
2018-07-26T05:30:39.424Z,21.10
2018-07-26T05:35:19.275Z,22.15
2018-07-26T05:39:59.018Z,25.35
2018-07-26T05:44:39.516Z,23.32
2018-07-26T05:49:19.703Z,23.05
2018-07-26T05:53:59.657Z,24.25
2018-07-26T05:58:39.493Z,22.77
2018-07-26T06:03:20.740Z,20.55
2018-07-26T06:08:00.855Z,22.40
2018-07-26T06:12:41.294Z,20.85
2018-07-26T06:17:21.202Z,21.00
2018-07-26T06:22:02.049Z,22.62
2018-07-26T06:26:42.331Z,25.92
2018-07-26T06:31:23.375Z,20.52
2018-07-26T06:36:03.823Z,19.70
2018-07-26T06:40:44.362Z,20.17
2018-07-26T06:45:24.295Z,19.85
2018-07-26T06:50:06.392Z,18.25
2018-07-26T06:54:46.461Z,18.35
2018-07-26T06:59:27.540Z,17.27
2018-07-26T07:04:07.604Z,16.73
2018-07-26T07:08:47.985Z,16.17
2018-07-26T07:13:28.574Z,12.68
2018-07-26T07:18:09.025Z,15.68
2018-07-26T07:22:50.043Z,15.15
2018-07-26T07:27:29.808Z,15.72
2018-07-26T07:32:09.660Z,11.95
2018-07-26T07:36:50.177Z,12.63
2018-07-26T07:41:29.949Z,10.70
2018-07-26T07:46:11.155Z,13.28
2018-07-26T07:50:51.958Z,12.47
2018-07-26T07:55:32.395Z,13.05
2018-07-26T08:00:12.580Z,8.83
2018-07-26T08:04:53.331Z,12.25
2018-07-26T08:09:33.183Z,9.18
2018-07-26T08:14:13.111Z,5.22
2018-07-26T08:18:53.187Z,7.55
2018-07-26T08:23:34.207Z,8.90
2018-07-26T08:28:14.520Z,7.45
2018-07-26T08:32:56.017Z,5.17
2018-07-26T08:37:36.627Z,6.75
2018-07-26T08:42:17.174Z,7.62
2018-07-26T08:46:57.748Z,7.42
2018-07-26T08:51:37.463Z,9.03
2018-07-26T08:56:17.959Z,7.03
2018-07-26T09:00:57.886Z,8.65
2018-07-26T09:05:38.451Z,5.00
2018-07-26T09:10:18.640Z,4.67
2018-07-26T09:14:58.427Z,6.40
2018-07-26T09:19:38.375Z,5.20
2018-07-26T09:24:19.185Z,5.28
2018-07-26T09:28:59.156Z,5.90
2018-07-26T09:33:39.596Z,5.20
2018-07-26T09:38:19.331Z,4.92
2018-07-26T09:42:59.883Z,3.83
2018-07-26T09:47:39.918Z,4.78
2018-07-26T09:52:20.707Z,3.87
2018-07-26T09:57:00.475Z,3.83
2018-07-26T10:01:41.440Z,6.35
2018-07-26T10:06:22.004Z,4.17
2018-07-26T10:11:02.609Z,5.90
2018-07-26T10:15:43.770Z,3.77
2018-07-26T10:20:23.852Z,4.40
2018-07-26T10:25:04.128Z,4.25
2018-07-26T10:29:44.591Z,4.72
2018-07-26T10:34:24.231Z,3.87
2018-07-26T10:39:05.088Z,3.72
2018-07-26T10:43:44.824Z,2.80
2018-07-26T10:48:24.712Z,4.65
2018-07-26T10:53:04.835Z,4.03
2018-07-26T10:57:44.916Z,6.25
2018-07-26T11:02:24.651Z,6.83
2018-07-26T11:07:04.614Z,4.28
2018-07-26T11:11:44.427Z,4.45
2018-07-26T11:16:25.016Z,5.58
2018-07-26T11:21:04.956Z,3.25
2018-07-26T11:25:44.955Z,5.33
2018-07-26T11:30:24.806Z,3.25
2018-07-26T11:35:04.792Z,4.65
2018-07-26T11:39:45.164Z,3.37
2018-07-26T11:44:25.011Z,4.78
2018-07-26T11:49:04.748Z,5.05
2018-07-26T11:53:44.563Z,2.33
2018-07-26T11:58:24.410Z,3.77
2018-07-26T12:03:04.084Z,2.80
2018-07-26T12:07:44.069Z,4.20
2018-07-26T12:12:24.204Z,2.52
2018-07-26T12:17:05.080Z,3.35
2018-07-26T12:21:44.936Z,6.10
2018-07-26T12:26:25.622Z,4.80
2018-07-26T12:31:05.580Z,6.12
2018-07-26T12:35:45.675Z,5.10
2018-07-26T12:40:26.041Z,3.62
2018-07-26T12:45:06.703Z,3.15
2018-07-26T12:49:47.916Z,4.00
2018-07-26T12:54:28.145Z,4.03
2018-07-26T12:59:08.701Z,4.37
2018-07-26T13:03:49.200Z,2.47
2018-07-26T13:08:30.695Z,3.72
2018-07-26T13:13:11.739Z,4.10
2018-07-26T13:17:51.956Z,5.22
2018-07-26T13:22:31.817Z,2.98
2018-07-26T13:27:11.543Z,2.65
2018-07-26T13:31:52.485Z,3.72
2018-07-26T13:36:33.047Z,2.75
2018-07-26T13:41:12.902Z,3.50
2018-07-26T13:45:53.155Z,2.98
2018-07-26T13:50:33.012Z,5.45
2018-07-26T13:55:12.696Z,6.50
2018-07-26T13:59:53.040Z,2.67
2018-07-26T14:04:33.635Z,4.95
2018-07-26T14:09:13.721Z,2.72
2018-07-26T14:13:54.564Z,3.17
2018-07-26T14:18:34.688Z,4.65
2018-07-26T14:23:19.940Z,4.00
2018-07-26T14:28:00.696Z,4.58
2018-07-26T14:32:40.572Z,2.30
2018-07-26T14:37:20.455Z,3.95
2018-07-26T14:42:01.163Z,2.83
2018-07-26T14:46:41.250Z,3.87
2018-07-26T14:51:22.524Z,5.28
2018-07-26T14:56:02.567Z,3.67
2018-07-26T15:00:42.991Z,3.33
2018-07-26T15:05:22.708Z,2.58
2018-07-26T15:10:03.481Z,3.95
2018-07-26T15:14:43.560Z,3.83
2018-07-26T15:19:25.604Z,3.67
2018-07-26T15:24:05.944Z,3.52
2018-07-26T15:28:45.707Z,4.17
2018-07-26T15:33:25.915Z,2.47
2018-07-26T15:38:07.051Z,2.30
2018-07-26T15:42:48.571Z,2.33
2018-07-26T15:47:29.232Z,2.20
2018-07-26T15:52:09.619Z,5.35
2018-07-26T15:56:49.704Z,2.10
2018-07-26T16:01:30.496Z,2.67
2018-07-26T16:06:10.559Z,4.05
2018-07-26T16:10:50.475Z,2.35
2018-07-26T16:15:31.091Z,3.90
2018-07-26T16:20:11.561Z,4.42
2018-07-26T16:24:51.652Z,3.20
2018-07-26T16:29:31.583Z,2.33
2018-07-26T16:34:11.732Z,2.75
2018-07-26T16:38:52.101Z,5.30
2018-07-26T16:43:32.742Z,5.17
2018-07-26T16:48:13.012Z,2.37
2018-07-26T16:52:53.549Z,3.12
2018-07-26T16:57:33.280Z,7.28
2018-07-26T17:02:13.228Z,3.25
2018-07-26T17:06:53.996Z,2.72
2018-07-26T17:11:34.780Z,3.62
2018-07-26T17:16:15.344Z,3.92
2018-07-26T17:20:56.124Z,2.70
2018-07-26T17:25:37.007Z,3.70
2018-07-26T17:30:19.045Z,2.77
2018-07-26T17:34:58.963Z,3.20
2018-07-26T17:39:38.883Z,2.77
2018-07-26T17:44:19.234Z,7.10
2018-07-26T17:48:59.755Z,3.08
2018-07-26T17:53:40.121Z,2.87
2018-07-26T17:58:20.056Z,3.10
2018-07-26T18:03:00.856Z,4.83
2018-07-26T18:07:40.851Z,3.42
2018-07-26T18:12:22.196Z,3.67
2018-07-26T18:17:02.159Z,4.33
2018-07-26T18:21:42.579Z,4.65
2018-07-26T18:26:22.741Z,4.90
2018-07-26T18:31:03.140Z,3.98
2018-07-26T18:35:43.480Z,7.50
2018-07-26T18:40:23.276Z,5.08
2018-07-26T18:45:04.007Z,7.62
2018-07-26T18:49:44.491Z,5.20
2018-07-26T18:54:24.269Z,9.40
2018-07-26T18:59:05.659Z,6.90
2018-07-26T19:03:45.616Z,7.45
2018-07-26T19:08:27.044Z,11.43
2018-07-26T19:13:08.263Z,6.00
2018-07-26T19:17:48.948Z,4.40
2018-07-26T19:22:28.675Z,6.22
2018-07-26T19:27:08.332Z,6.55
2018-07-26T19:31:49.789Z,5.03
2018-07-26T19:36:31.341Z,4.28
2018-07-26T19:41:12.051Z,6.65
2018-07-26T19:45:51.812Z,7.03
2018-07-26T19:50:32.040Z,4.20
2018-07-26T19:55:12.606Z,5.33
2018-07-26T19:59:52.470Z,6.25
2018-07-26T20:04:33.503Z,5.80
2018-07-26T20:09:13.426Z,5.60
2018-07-26T20:13:54.272Z,4.60
2018-07-26T20:18:34.588Z,9.13
2018-07-26T20:23:15.188Z,5.80
2018-07-26T20:27:55.677Z,6.55
2018-07-26T20:32:35.353Z,4.65
2018-07-26T20:37:15.270Z,6.40
2018-07-26T20:41:55.407Z,6.62
2018-07-26T20:46:35.071Z,5.80
2018-07-26T20:51:14.888Z,5.45
2018-07-26T20:55:57.469Z,4.83
2018-07-26T21:00:40.304Z,5.53
2018-07-26T21:05:21.423Z,7.30
2018-07-26T21:10:01.484Z,5.00
2018-07-26T21:14:42.656Z,4.72
2018-07-26T21:19:22.732Z,5.85
2018-07-26T21:24:03.104Z,7.03
2018-07-26T21:28:43.759Z,7.78
2018-07-26T21:33:25.776Z,5.25
2018-07-26T21:38:06.480Z,5.00
2018-07-26T21:42:46.448Z,5.42
2018-07-26T21:47:27.207Z,5.37
2018-07-26T21:52:08.216Z,6.53
2018-07-26T21:56:47.558Z,6.00
2018-07-26T22:01:27.627Z,7.03
2018-07-26T22:06:07.988Z,6.97
2018-07-26T22:10:49.544Z,5.78
2018-07-26T22:15:29.633Z,5.35
2018-07-26T22:20:09.827Z,8.18
2018-07-26T22:24:50.341Z,6.03
2018-07-26T22:29:30.288Z,5.83
2018-07-26T22:34:10.974Z,7.05
2018-07-26T22:38:52.713Z,5.65
2018-07-26T22:43:32.619Z,6.45
2018-07-26T22:48:13.076Z,5.40
2018-07-26T22:52:53.595Z,5.17
2018-07-26T22:57:33.718Z,5.58
2018-07-26T23:02:14.954Z,5.62
2018-07-26T23:06:55.408Z,6.58
2018-07-26T23:11:36.067Z,5.47
2018-07-26T23:16:16.027Z,5.70
2018-07-26T23:20:56.248Z,5.85
2018-07-26T23:25:36.304Z,5.55
2018-07-26T23:30:16.675Z,7.47
2018-07-26T23:34:56.771Z,5.50
2018-07-26T23:39:37.014Z,6.05
2018-07-26T23:44:18.501Z,8.20
2018-07-26T23:48:58.499Z,5.83
2018-07-26T23:53:38.543Z,6.10
2018-07-26T23:58:19.680Z,7.87
